Time;durP1;ratioP1;P1;durP2;ratioP2;P2;SDS_P1;SDS_P2;PMS_P1;PMS_P2;Temp;Humidity;BMP_temperature;BMP_pressure;BME280_temperature;BME280_humidity;BME280_pressure;Samples;Min_cycle;Max_cycle;Signal;HPM_P1;HPM_P2
2022/09/17 00:00:20;;;;;;;10.75;2.45;;;14.80;68.10;;;;;;5114750;28;20024;-66
2022/09/17 00:02:50;;;;;;;10.60;2.10;;;14.80;68.30;;;;;;5129485;27;20042;-66
2022/09/17 00:05:16;;;;;;;9.40;2.20;;;14.80;68.60;;;;;;5119584;27;20102;-66
2022/09/17 00:07:41;;;;;;;7.60;1.95;;;14.80;68.80;;;;;;5116993;28;20043;-66
2022/09/17 00:10:07;;;;;;;8.75;1.92;;;14.80;69.00;;;;;;5118110;28;20466;-66
2022/09/17 00:12:33;;;;;;;8.27;1.85;;;14.70;69.20;;;;;;5132913;27;20125;-66
2022/09/17 00:14:58;;;;;;;10.73;2.50;;;14.80;69.40;;;;;;5116116;28;20063;-66
2022/09/17 00:17:24;;;;;;;15.55;2.55;;;14.70;69.60;;;;;;5121562;27;20047;-66
2022/09/17 00:19:49;;;;;;;9.25;1.60;;;14.70;69.90;;;;;;5116826;28;20119;-66
2022/09/17 00:22:15;;;;;;;9.32;2.10;;;14.70;70.10;;;;;;5115928;27;20053;-66
2022/09/17 00:24:41;;;;;;;11.45;2.42;;;14.70;70.20;;;;;;5116720;28;20027;-66
2022/09/17 00:27:06;;;;;;;9.32;2.63;;;14.70;70.40;;;;;;5099252;28;20031;-66
2022/09/17 00:29:32;;;;;;;9.98;2.38;;;14.70;70.60;;;;;;5133616;27;20036;-66
2022/09/17 00:31:58;;;;;;;9.07;2.42;;;14.70;70.70;;;;;;5116495;27;20024;-66
2022/09/17 00:34:23;;;;;;;9.88;2.38;;;14.60;70.80;;;;;;5115880;28;20020;-66
2022/09/17 00:36:49;;;;;;;9.48;2.25;;;14.60;70.80;;;;;;5116964;28;20022;-66
2022/09/17 00:39:15;;;;;;;9.00;2.15;;;14.60;71.00;;;;;;5117349;28;20092;-66
2022/09/17 00:41:41;;;;;;;8.70;2.60;;;14.60;71.00;;;;;;5115731;27;20039;-66
2022/09/17 00:44:49;;;;;;;11.25;2.50;;;14.60;71.20;;;;;;5133693;27;20027;-66
2022/09/17 00:47:33;;;;;;;10.80;2.50;;;14.60;71.30;;;;;;5110328;28;20050;-66
2022/09/17 00:50:12;;;;;;;10.65;2.28;;;14.60;71.30;;;;;;5116026;27;20039;-66
2022/09/17 00:53:13;;;;;;;9.45;1.75;;;14.50;71.30;;;;;;5117229;28;20077;-66
2022/09/17 00:55:42;;;;;;;10.73;1.88;;;14.50;71.30;;;;;;5093222;27;20044;-66
2022/09/17 00:58:11;;;;;;;8.18;2.10;;;14.50;71.50;;;;;;5116755;28;20016;-66
2022/09/17 01:00:39;;;;;;;11.50;2.03;;;14.50;71.50;;;;;;5116086;28;20106;-67
2022/09/17 01:03:04;;;;;;;10.98;2.28;;;14.50;71.50;;;;;;5115969;28;20129;-66
2022/09/17 01:05:53;;;;;;;10.68;2.15;;;14.50;71.50;;;;;;5116784;28;20020;-66
2022/09/17 01:08:30;;;;;;;9.60;1.70;;;14.50;71.60;;;;;;5107602;28;20019;-66
2022/09/17 01:11:27;;;;;;;12.15;2.35;;;14.50;71.50;;;;;;5129948;27;20042;-66
2022/09/17 01:14:16;;;;;;;9.23;1.80;;;14.50;71.50;;;;;;5128628;27;20120;-66
2022/09/17 01:17:15;;;;;;;12.02;2.13;;;14.50;71.70;;;;;;5116304;28;20024;-66
2022/09/17 01:20:15;;;;;;;10.77;2.22;;;14.50;71.80;;;;;;5104428;28;20024;-66
2022/09/17 01:22:59;;;;;;;8.88;1.90;;;14.50;71.80;;;;;;5115278;28;20418;-66
2022/09/17 01:25:37;;;;;;;8.60;1.75;;;14.40;71.80;;;;;;5116092;27;20035;-66
2022/09/17 01:28:21;;;;;;;8.55;1.73;;;14.40;72.00;;;;;;5115502;27;20356;-66
2022/09/17 01:31:03;;;;;;;11.98;2.00;;;14.40;72.10;;;;;;5108570;28;20024;-66
2022/09/17 01:33:52;;;;;;;8.93;1.73;;;14.40;72.30;;;;;;5115716;28;20466;-66
2022/09/17 01:36:24;;;;;;;11.73;2.28;;;14.40;72.60;;;;;;5116017;28;20034;-66
2022/09/17 01:39:28;;;;;;;11.27;2.10;;;14.30;72.90;;;;;;5102382;28;20027;-66
2022/09/17 01:42:23;;;;;;;6.35;1.80;;;14.30;73.00;;;;;;5124376;27;20054;-66
2022/09/17 01:45:08;;;;;;;8.23;1.50;;;14.30;73.10;;;;;;5114183;28;20381;-66
2022/09/17 01:47:50;;;;;;;8.80;1.83;;;14.20;73.40;;;;;;5115474;28;20501;-66
2022/09/17 01:50:24;;;;;;;6.63;1.85;;;14.20;73.60;;;;;;5115463;28;20024;-66
2022/09/17 01:52:53;;;;;;;9.63;2.10;;;14.10;73.60;;;;;;5114853;27;20478;-66
2022/09/17 01:55:23;;;;;;;10.85;2.45;;;14.20;73.70;;;;;;5115598;28;20054;-67
2022/09/17 01:58:13;;;;;;;9.70;2.15;;;14.20;73.80;;;;;;5114771;27;20035;-66
2022/09/17 02:00:44;;;;;;;7.93;1.80;;;14.20;73.90;;;;;;5115010;28;20363;-66
2022/09/17 02:03:29;;;;;;;6.55;1.42;;;14.10;73.90;;;;;;5116145;28;20104;-66
2022/09/17 02:06:08;;;;;;;9.07;2.47;;;14.20;74.00;;;;;;5131558;27;20485;-66
2022/09/17 02:08:44;;;;;;;8.35;1.63;;;14.20;74.10;;;;;;5106962;28;20456;-66
2022/09/17 02:11:14;;;;;;;7.45;1.65;;;14.20;74.20;;;;;;5114845;27;20034;-66
2022/09/17 02:13:42;;;;;;;7.95;2.22;;;14.20;74.20;;;;;;5115448;28;20090;-66
2022/09/17 02:16:18;;;;;;;7.10;1.60;;;14.20;74.10;;;;;;5114101;28;20319;-66
2022/09/17 02:19:05;;;;;;;11.10;2.35;;;14.20;74.30;;;;;;5121003;27;20020;-66
2022/09/17 02:21:51;;;;;;;13.30;2.40;;;14.20;74.30;;;;;;5114455;28;20107;-66
2022/09/17 02:24:28;;;;;;;8.30;1.50;;;14.10;74.40;;;;;;5113668;28;20039;-66
2022/09/17 02:26:54;;;;;;;8.00;1.73;;;14.10;74.40;;;;;;5115303;28;20121;-66
2022/09/17 02:29:30;;;;;;;8.43;1.77;;;14.10;74.50;;;;;;5115394;28;20459;-66
2022/09/17 02:31:56;;;;;;;6.35;1.65;;;14.10;74.50;;;;;;5107282;27;20119;-66
2022/09/17 02:34:24;;;;;;;13.55;1.83;;;14.10;74.50;;;;;;5122581;27;20077;-66
2022/09/17 02:36:49;;;;;;;7.50;1.80;;;14.10;74.60;;;;;;5114869;28;20168;-66
2022/09/17 02:39:16;;;;;;;9.25;1.83;;;14.10;74.60;;;;;;5131716;27;20415;-66
2022/09/17 02:41:47;;;;;;;9.43;1.88;;;14.10;74.60;;;;;;5113480;27;20095;-66
2022/09/17 02:44:25;;;;;;;10.05;2.25;;;14.10;74.70;;;;;;5115064;28;20122;-66
2022/09/17 02:47:15;;;;;;;9.70;2.30;;;14.00;74.80;;;;;;5117518;27;20031;-66
2022/09/17 02:49:59;;;;;;;8.80;2.63;;;14.00;75.00;;;;;;5120938;27;20096;-66
2022/09/17 02:52:30;;;;;;;13.95;2.00;;;14.00;74.90;;;;;;5103069;28;20035;-66
2022/09/17 02:55:15;;;;;;;8.18;2.10;;;14.00;74.90;;;;;;5118900;27;20051;-66
2022/09/17 02:58:01;;;;;;;9.27;1.92;;;14.00;74.90;;;;;;5130397;27;20051;-66
2022/09/17 03:00:27;;;;;;;9.25;1.90;;;14.00;74.80;;;;;;5114874;27;20027;-66
2022/09/17 03:03:18;;;;;;;9.52;2.00;;;14.00;74.80;;;;;;5114841;28;20043;-66
2022/09/17 03:05:45;;;;;;;7.55;2.28;;;14.00;74.90;;;;;;5140281;27;20320;-66
2022/09/17 03:08:17;;;;;;;5.53;1.30;;;14.00;74.90;;;;;;5113836;28;20031;-66
2022/09/17 03:10:43;;;;;;;5.90;1.50;;;13.90;74.80;;;;;;5113644;28;20084;-66
2022/09/17 03:13:09;;;;;;;8.82;1.83;;;13.90;74.80;;;;;;5114185;28;20414;-66
2022/09/17 03:15:34;;;;;;;9.80;2.40;;;13.90;74.90;;;;;;5113961;28;20035;-66
2022/09/17 03:18:00;;;;;;;10.93;2.30;;;13.80;74.80;;;;;;5114573;28;20034;-66
2022/09/17 03:20:26;;;;;;;9.32;2.33;;;13.80;74.80;;;;;;5114912;28;20031;-66
2022/09/17 03:22:51;;;;;;;7.88;1.63;;;13.80;74.80;;;;;;5113769;28;20123;-66
2022/09/17 03:25:17;;;;;;;9.10;2.17;;;13.80;74.80;;;;;;5117246;28;20129;-66
2022/09/17 03:27:43;;;;;;;8.82;1.77;;;13.80;74.80;;;;;;5115256;28;20031;-66
2022/09/17 03:30:09;;;;;;;8.45;1.83;;;13.80;74.80;;;;;;5113498;28;20028;-66
2022/09/17 03:32:34;;;;;;;9.07;1.92;;;13.80;74.80;;;;;;5114096;28;20445;-66
2022/09/17 03:35:00;;;;;;;8.88;2.05;;;13.80;74.80;;;;;;5114105;28;20027;-66
2022/09/17 03:37:26;;;;;;;10.55;1.92;;;13.70;74.70;;;;;;5117946;28;20028;-66
2022/09/17 03:39:51;;;;;;;7.82;1.40;;;13.70;74.70;;;;;;5121620;27;20026;-66
2022/09/17 03:42:17;;;;;;;5.45;1.48;;;13.70;74.70;;;;;;5134611;27;20448;-66
2022/09/17 03:44:42;;;;;;;6.40;1.85;;;13.70;74.70;;;;;;5131755;27;20088;-66
2022/09/17 03:47:08;;;;;;;7.72;2.00;;;13.60;74.60;;;;;;5121599;27;20023;-66
2022/09/17 03:49:34;;;;;;;9.27;1.60;;;13.60;74.60;;;;;;5123138;27;20027;-66
2022/09/17 03:52:00;;;;;;;7.03;1.35;;;13.60;74.70;;;;;;5118793;27;20432;-66
2022/09/17 03:54:25;;;;;;;6.75;1.60;;;13.60;74.70;;;;;;5106302;27;20394;-66
2022/09/17 03:56:51;;;;;;;7.25;1.75;;;13.60;74.60;;;;;;5100720;28;20024;-66
2022/09/17 03:59:16;;;;;;;7.75;1.60;;;13.60;74.60;;;;;;5102156;27;20031;-66
2022/09/17 04:01:42;;;;;;;6.95;1.42;;;13.50;74.60;;;;;;5106189;28;20030;-66
2022/09/17 04:04:08;;;;;;;5.60;1.70;;;13.50;74.60;;;;;;5107477;27;20032;-66
2022/09/17 04:06:34;;;;;;;10.05;1.98;;;13.50;74.50;;;;;;5120013;27;20123;-66
2022/09/17 04:09:02;;;;;;;6.72;1.25;;;13.50;74.50;;;;;;5101126;28;20055;-66
2022/09/17 04:11:27;;;;;;;8.90;1.63;;;13.50;74.50;;;;;;5100080;28;20039;-66
2022/09/17 04:13:53;;;;;;;9.98;1.65;;;13.50;74.50;;;;;;5123382;27;20043;-66
2022/09/17 04:16:19;;;;;;;5.50;1.60;;;13.50;74.40;;;;;;5114612;27;20027;-66
2022/09/17 04:18:44;;;;;;;6.72;1.55;;;13.50;74.30;;;;;;5117353;28;20119;-65
2022/09/17 04:21:10;;;;;;;10.15;1.58;;;13.50;74.30;;;;;;5116947;27;20024;-66
2022/09/17 04:23:35;;;;;;;7.60;1.70;;;13.40;74.20;;;;;;5119901;27;20355;-66
2022/09/17 04:26:01;;;;;;;8.68;2.22;;;13.50;74.30;;;;;;5116448;28;20032;-66
2022/09/17 04:28:27;;;;;;;7.75;1.98;;;13.40;74.20;;;;;;5115723;28;20035;-66
2022/09/17 04:30:52;;;;;;;6.00;1.58;;;13.40;74.30;;;;;;5113835;27;20101;-66
2022/09/17 04:33:18;;;;;;;8.55;2.03;;;13.40;74.20;;;;;;5116640;27;20028;-66
2022/09/17 04:35:44;;;;;;;10.35;1.65;;;13.40;74.20;;;;;;5118109;27;20051;-66
2022/09/17 04:38:12;;;;;;;8.05;1.95;;;13.40;74.10;;;;;;5120068;27;20019;-66
2022/09/17 04:40:41;;;;;;;7.18;1.77;;;13.40;74.10;;;;;;5115452;27;20039;-66
2022/09/17 04:43:08;;;;;;;9.25;2.10;;;13.40;74.10;;;;;;5115028;28;20341;-67
2022/09/17 04:45:33;;;;;;;10.65;1.63;;;13.30;74.00;;;;;;5096526;28;20444;-66
2022/09/17 04:48:00;;;;;;;7.85;2.10;;;13.30;74.00;;;;;;5117077;27;20055;-66
2022/09/17 04:50:26;;;;;;;7.63;1.67;;;13.30;73.90;;;;;;5116951;27;20351;-66
2022/09/17 04:52:51;;;;;;;7.45;1.90;;;13.30;73.90;;;;;;5121078;27;20023;-67
2022/09/17 04:55:17;;;;;;;7.32;1.77;;;13.30;73.90;;;;;;5117236;28;20041;-67
2022/09/17 04:57:47;;;;;;;7.63;1.90;;;13.20;73.90;;;;;;5116776;27;20103;-66
2022/09/17 05:00:13;;;;;;;8.07;1.88;;;13.20;73.90;;;;;;5115377;27;20023;-67
2022/09/17 05:02:38;;;;;;;5.32;1.40;;;13.20;74.00;;;;;;5117377;28;20119;-66
2022/09/17 05:05:04;;;;;;;7.68;1.63;;;13.20;74.00;;;;;;5121671;27;20101;-67
2022/09/17 05:07:30;;;;;;;4.28;1.65;;;13.20;74.00;;;;;;5117479;27;20061;-66
2022/09/17 05:09:55;;;;;;;11.73;1.35;;;13.10;74.00;;;;;;5114566;27;20034;-67
2022/09/17 05:12:21;;;;;;;7.82;1.75;;;13.10;74.00;;;;;;5115723;28;20050;-66
2022/09/17 05:14:46;;;;;;;5.10;1.48;;;13.10;74.00;;;;;;5115275;27;20080;-66
2022/09/17 05:17:12;;;;;;;10.90;2.10;;;13.10;74.00;;;;;;5115916;27;20024;-67
2022/09/17 05:19:38;;;;;;;4.18;1.25;;;13.10;74.10;;;;;;5115367;27;20020;-67
2022/09/17 05:22:03;;;;;;;7.15;1.33;;;13.10;74.10;;;;;;5122310;27;20019;-67
2022/09/17 05:24:29;;;;;;;5.32;1.15;;;13.10;74.10;;;;;;5118738;27;20350;-66
2022/09/17 05:26:55;;;;;;;6.90;1.60;;;13.10;74.10;;;;;;5116501;27;20036;-66
2022/09/17 05:29:20;;;;;;;7.63;1.85;;;13.10;74.10;;;;;;5115444;27;20113;-66
2022/09/17 05:31:46;;;;;;;5.97;1.40;;;13.10;74.10;;;;;;5115203;27;20473;-66
2022/09/17 05:34:12;;;;;;;5.88;1.45;;;13.10;74.10;;;;;;5115842;28;20032;-66
2022/09/17 05:36:37;;;;;;;8.73;1.52;;;13.10;74.10;;;;;;5128866;27;20420;-66
2022/09/17 05:39:03;;;;;;;8.95;1.90;;;13.10;74.10;;;;;;5121431;27;20137;-66
2022/09/17 05:41:28;;;;;;;8.63;1.65;;;13.10;74.10;;;;;;5116064;28;20016;-66
2022/09/17 05:43:54;;;;;;;8.00;1.48;;;13.10;74.00;;;;;;5131521;27;20031;-67
2022/09/17 05:46:20;;;;;;;6.93;1.35;;;13.20;74.00;;;;;;5114836;28;20118;-67
2022/09/17 05:48:45;;;;;;;6.00;1.58;;;13.10;73.90;;;;;;5100461;28;20096;-66
2022/09/17 05:51:11;;;;;;;10.52;1.73;;;13.20;73.90;;;;;;5112894;27;20024;-66
2022/09/17 05:53:37;;;;;;;6.57;1.60;;;13.10;73.90;;;;;;5115139;28;20039;-66
2022/09/17 05:56:02;;;;;;;7.53;1.80;;;13.10;73.80;;;;;;5118143;27;20043;-67
2022/09/17 05:58:28;;;;;;;7.03;1.60;;;13.20;73.90;;;;;;5125554;27;20105;-66
2022/09/17 06:00:54;;;;;;;9.82;1.67;;;13.20;73.90;;;;;;5115503;28;20417;-67
2022/09/17 06:03:21;;;;;;;6.63;1.80;;;13.20;73.80;;;;;;5114237;28;20088;-66
2022/09/17 06:05:58;;;;;;;12.65;2.08;;;13.20;73.80;;;;;;5117226;27;20366;-67
2022/09/17 06:08:26;;;;;;;6.65;1.70;;;13.20;73.80;;;;;;5114371;28;20118;-67
2022/09/17 06:10:51;;;;;;;7.15;2.08;;;13.20;73.70;;;;;;5112657;27;20114;-67
2022/09/17 06:13:18;;;;;;;8.15;1.80;;;13.20;73.60;;;;;;5115086;28;20127;-67
2022/09/17 06:15:52;;;;;;;7.00;1.58;;;13.20;73.60;;;;;;5112600;28;20027;-66
2022/09/17 06:18:18;;;;;;;8.48;1.67;;;13.10;73.50;;;;;;5114265;28;20418;-67
2022/09/17 06:20:59;;;;;;;7.63;1.60;;;13.10;73.50;;;;;;5130124;27;20020;-69
2022/09/17 06:23:25;;;;;;;6.38;1.40;;;13.20;73.50;;;;;;5100315;28;20027;-66
2022/09/17 06:25:57;;;;;;;8.93;1.90;;;13.10;73.50;;;;;;5097974;28;20035;-67
2022/09/17 06:28:26;;;;;;;8.93;2.03;;;13.20;73.60;;;;;;5116399;27;20082;-67
2022/09/17 06:30:53;;;;;;;7.25;1.33;;;13.20;73.50;;;;;;5114302;27;20092;-67
2022/09/17 06:33:19;;;;;;;10.07;1.90;;;13.20;73.50;;;;;;5114484;28;20296;-67
2022/09/17 06:35:45;;;;;;;6.10;1.65;;;13.30;74.10;;;;;;5121555;27;20466;-67
2022/09/17 06:38:11;;;;;;;10.27;1.70;;;13.30;73.40;;;;;;5120795;27;20136;-67
2022/09/17 06:40:37;;;;;;;6.85;1.25;;;13.40;73.40;;;;;;5112038;28;20076;-68
2022/09/17 06:43:03;;;;;;;6.40;1.58;;;13.40;73.30;;;;;;5112586;28;20016;-68
2022/09/17 06:45:28;;;;;;;10.93;1.67;;;13.40;73.20;;;;;;5113081;28;20366;-68
2022/09/17 06:47:55;;;;;;;8.30;1.77;;;13.50;73.20;;;;;;5114893;28;20098;-67
2022/09/17 06:50:20;;;;;;;9.85;2.13;;;13.50;73.00;;;;;;5130135;27;20359;-67
2022/09/17 06:52:51;;;;;;;7.38;1.80;;;13.60;73.00;;;;;;5113578;28;20019;-68
2022/09/17 06:55:17;;;;;;;6.72;1.73;;;13.70;72.90;;;;;;5114839;28;20046;-68
2022/09/17 06:57:42;;;;;;;9.75;1.48;;;13.70;72.70;;;;;;5114680;28;20028;-68
2022/09/17 07:00:09;;;;;;;7.85;1.63;;;13.80;72.70;;;;;;5119652;27;20425;-68
2022/09/17 07:02:35;;;;;;;6.88;1.50;;;13.80;72.50;;;;;;5123810;27;20027;-68
2022/09/17 07:05:01;;;;;;;7.68;1.77;;;13.90;72.40;;;;;;5131134;27;20083;-68
2022/09/17 07:07:27;;;;;;;7.20;1.48;;;14.00;72.30;;;;;;5113877;28;20034;-69
2022/09/17 07:09:53;;;;;;;4.22;1.20;;;14.10;72.20;;;;;;5115813;27;20035;-68
2022/09/17 07:12:19;;;;;;;8.52;1.35;;;14.20;72.00;;;;;;5123808;27;20050;-68
2022/09/17 07:14:46;;;;;;;8.13;1.70;;;14.20;72.00;;;;;;5130808;27;20035;-68
2022/09/17 07:17:13;;;;;;;6.22;1.70;;;14.30;71.90;;;;;;5096919;28;20023;-68
2022/09/17 07:19:38;;;;;;;6.07;1.83;;;14.30;71.70;;;;;;5130368;28;20119;-68
2022/09/17 07:22:04;;;;;;;7.25;1.38;;;14.30;71.50;;;;;;5114672;28;20055;-68
2022/09/17 07:24:29;;;;;;;4.45;1.30;;;14.40;71.50;;;;;;5114473;28;20019;-68
2022/09/17 07:26:55;;;;;;;9.18;1.70;;;14.50;71.20;;;;;;5114230;28;20396;-68
2022/09/17 07:29:22;;;;;;;7.43;1.45;;;14.70;71.10;;;;;;5123562;28;20109;-67
2022/09/17 07:31:48;;;;;;;5.45;1.10;;;14.80;70.90;;;;;;5115944;27;20372;-66
2022/09/17 07:34:14;;;;;;;4.05;1.20;;;14.90;70.70;;;;;;5113973;28;20356;-67
2022/09/17 07:36:39;;;;;;;6.15;1.52;;;15.00;70.40;;;;;;5113189;28;20027;-66
2022/09/17 07:39:05;;;;;;;7.78;1.35;;;15.10;70.10;;;;;;5114398;28;20180;-67
2022/09/17 07:41:31;;;;;;;6.95;1.40;;;15.20;69.80;;;;;;5129051;28;20424;-67
2022/09/17 07:43:56;;;;;;;4.82;1.17;;;15.40;69.50;;;;;;5112893;28;20055;-68
2022/09/17 07:46:22;;;;;;;4.00;1.02;;;15.50;69.30;;;;;;5114340;28;20035;-68
2022/09/17 07:48:49;;;;;;;6.53;1.40;;;15.60;68.90;;;;;;5112504;28;20027;-68
2022/09/17 07:51:23;;;;;;;6.65;1.58;;;15.70;68.60;;;;;;5114908;28;20058;-68
2022/09/17 07:53:57;;;;;;;4.00;1.13;;;15.90;68.10;;;;;;5112982;28;20443;-68
2022/09/17 07:56:24;;;;;;;9.90;1.77;;;16.10;67.60;;;;;;5113062;28;20024;-67
2022/09/17 07:58:49;;;;;;;5.10;1.40;;;16.30;67.20;;;;;;5114218;28;20030;-67
2022/09/17 08:01:16;;;;;;;3.38;1.17;;;16.50;66.90;;;;;;5113315;28;20027;-68
2022/09/17 08:03:46;;;;;;;7.20;1.70;;;16.80;66.30;;;;;;5127997;28;20032;-67
2022/09/17 08:06:14;;;;;;;4.78;1.30;;;17.00;65.50;;;;;;5111831;28;20027;-67
2022/09/17 08:08:41;;;;;;;6.45;1.35;;;17.30;65.00;;;;;;5112395;28;20068;-67
2022/09/17 08:11:18;;;;;;;5.50;1.48;;;17.40;64.50;;;;;;5115676;28;20458;-68
2022/09/17 08:13:48;;;;;;;8.73;1.45;;;17.50;64.00;;;;;;5113438;28;20084;-68
2022/09/17 08:16:14;;;;;;;7.05;1.30;;;17.50;63.70;;;;;;5113508;28;20031;-67
2022/09/17 08:18:41;;;;;;;5.38;1.35;;;17.70;63.50;;;;;;5112462;28;20059;-68
2022/09/17 08:21:09;;;;;;;5.72;1.40;;;17.80;62.90;;;;;;5113105;28;20355;-68
2022/09/17 08:23:36;;;;;;;5.97;1.30;;;17.90;62.50;;;;;;5115754;28;20071;-68
2022/09/17 08:26:03;;;;;;;5.15;1.40;;;18.00;62.10;;;;;;5099111;28;20064;-68
2022/09/17 08:28:30;;;;;;;5.68;1.35;;;18.10;61.80;;;;;;5116841;28;20032;-68
2022/09/17 08:31:03;;;;;;;6.45;1.42;;;18.20;61.40;;;;;;5116061;28;20039;-68
2022/09/17 08:33:34;;;;;;;7.22;1.40;;;18.20;61.10;;;;;;5117156;28;20039;-68
2022/09/17 08:36:00;;;;;;;6.72;1.30;;;18.30;60.80;;;;;;5116335;28;20019;-68
2022/09/17 08:38:27;;;;;;;6.50;1.70;;;18.40;60.70;;;;;;5133325;27;20114;-68
2022/09/17 08:41:16;;;;;;;6.30;1.20;;;18.20;60.50;;;;;;5117232;28;20310;-67
2022/09/17 08:44:06;;;;;;;6.00;1.17;;;18.20;60.50;;;;;;5116228;28;20023;-68
2022/09/17 08:46:47;;;;;;;6.55;1.02;;;18.40;60.30;;;;;;5115858;27;20031;-68
2022/09/17 08:49:37;;;;;;;4.88;1.65;;;18.70;59.60;;;;;;5117610;27;20023;-68
2022/09/17 08:52:45;;;;;;;4.40;1.60;;;18.90;59.30;;;;;;5130365;27;20023;-68
2022/09/17 08:55:48;;;;;;;5.18;1.10;;;19.10;58.90;;;;;;5066559;28;20112;-69
2022/09/17 08:58:22;;;;;;;5.13;1.30;;;19.10;58.10;;;;;;5073428;28;20519;-67
2022/09/17 09:01:03;;;;;;;6.40;1.08;;;19.10;58.00;;;;;;5056479;28;20048;-68
2022/09/17 09:03:53;;;;;;;4.82;1.00;;;19.10;57.70;;;;;;5049190;28;20035;-68
2022/09/17 09:06:25;;;;;;;4.22;0.90;;;18.90;57.70;;;;;;5057077;28;20028;-67
2022/09/17 09:09:04;;;;;;;3.83;0.93;;;18.70;57.90;;;;;;5072658;28;20143;-68
2022/09/17 09:11:30;;;;;;;4.75;0.93;;;18.60;57.50;;;;;;5073465;28;20024;-68
2022/09/17 09:14:46;;;;;;;5.65;1.10;;;18.60;57.20;;;;;;5072067;28;20076;-68
2022/09/17 09:17:11;;;;;;;6.68;1.20;;;18.70;56.60;;;;;;5039678;28;20364;-67
2022/09/17 09:19:45;;;;;;;3.65;1.02;;;18.80;56.40;;;;;;5057409;28;20067;-68
2022/09/17 09:22:20;;;;;;;6.25;1.00;;;18.90;55.80;;;;;;5057694;28;20435;-68
2022/09/17 09:25:02;;;;;;;2.63;0.80;;;19.00;55.70;;;;;;5075072;28;20048;-68
2022/09/17 09:27:31;;;;;;;5.43;1.30;;;19.20;54.80;;;;;;5055177;28;20025;-67
2022/09/17 09:30:05;;;;;;;2.92;0.80;;;19.10;54.70;;;;;;5109987;28;20040;-68
2022/09/17 09:32:56;;;;;;;4.18;1.02;;;19.20;54.20;;;;;;5110478;28;20042;-67
2022/09/17 09:35:31;;;;;;;2.95;0.90;;;19.40;54.10;;;;;;5112788;28;20119;-67
2022/09/17 09:38:04;;;;;;;4.05;1.20;;;19.50;54.00;;;;;;5113931;28;20455;-69
2022/09/17 09:40:46;;;;;;;4.55;1.02;;;19.50;53.60;;;;;;5114901;28;20022;-68
2022/09/17 09:43:49;;;;;;;4.63;1.20;;;19.60;53.30;;;;;;5115820;27;20039;-68
2022/09/17 09:46:37;;;;;;;4.60;0.93;;;19.70;53.30;;;;;;5127463;27;20442;-68
2022/09/17 09:49:21;;;;;;;3.38;0.85;;;19.80;53.10;;;;;;5129212;27;20024;-68
2022/09/17 09:52:22;;;;;;;4.35;0.80;;;19.80;53.10;;;;;;5112361;28;20043;-68
2022/09/17 09:55:03;;;;;;;4.72;1.33;;;19.90;52.70;;;;;;5114061;28;20054;-69
2022/09/17 09:57:44;;;;;;;2.00;0.60;;;19.70;53.00;;;;;;5114708;27;20020;-67
2022/09/17 10:00:41;;;;;;;4.00;1.20;;;19.40;53.00;;;;;;5115690;27;20277;-68
2022/09/17 10:03:18;;;;;;;3.08;0.73;;;18.90;53.70;;;;;;5111502;27;20386;-68
2022/09/17 10:06:05;;;;;;;3.97;1.10;;;18.60;54.60;;;;;;5112937;28;20031;-67
2022/09/17 10:08:33;;;;;;;3.95;1.02;;;18.20;55.70;;;;;;5115435;27;20051;-68
2022/09/17 10:11:05;;;;;;;2.97;0.80;;;18.00;56.70;;;;;;5106638;27;20028;-68
2022/09/17 10:13:34;;;;;;;3.45;0.80;;;17.70;57.50;;;;;;5105291;28;20070;-68
2022/09/17 10:16:25;;;;;;;4.45;0.80;;;17.50;58.40;;;;;;5107649;28;20030;-67
2022/09/17 10:19:13;;;;;;;3.53;0.70;;;17.30;59.10;;;;;;5127299;27;20065;-67
2022/09/17 10:21:41;;;;;;;3.08;0.82;;;17.10;59.60;;;;;;5105246;28;20337;-67
2022/09/17 10:24:30;;;;;;;3.08;0.80;;;17.20;59.90;;;;;;5110277;28;20444;-67
2022/09/17 10:27:12;;;;;;;3.75;0.90;;;17.10;60.30;;;;;;5108732;28;20040;-67
2022/09/17 10:29:46;;;;;;;5.22;0.85;;;17.00;60.90;;;;;;5105483;27;20043;-67
2022/09/17 10:32:20;;;;;;;3.60;1.00;;;16.80;61.70;;;;;;5109828;28;20031;-67
2022/09/17 10:35:14;;;;;;;4.18;0.90;;;16.80;62.60;;;;;;5112579;27;20393;-67
2022/09/17 10:37:47;;;;;;;3.50;0.88;;;16.90;63.00;;;;;;5112542;28;20038;-66
2022/09/17 10:40:18;;;;;;;4.70;0.93;;;17.10;63.60;;;;;;5126360;27;20401;-67
2022/09/17 10:43:10;;;;;;;3.38;0.73;;;17.00;63.30;;;;;;5110314;27;20030;-67
2022/09/17 10:45:37;;;;;;;;;;;16.80;64.10;;;;;;5111056;28;20104;-67
2022/09/17 10:48:03;;;;;;;2.65;0.75;;;16.60;64.10;;;;;;5129243;27;20352;-67
2022/09/17 10:50:31;;;;;;;2.15;0.70;;;16.40;64.20;;;;;;5112870;28;20035;-68
2022/09/17 10:53:00;;;;;;;3.03;0.93;;;16.20;64.50;;;;;;5109904;27;20023;-67
2022/09/17 10:55:43;;;;;;;3.58;0.93;;;16.00;64.80;;;;;;5112821;27;20402;-69
2022/09/17 10:58:55;;;;;;;3.03;0.98;;;16.10;65.30;;;;;;5109406;28;20046;-69
2022/09/17 11:02:06;;;;;;;2.47;0.98;;;16.40;64.70;;;;;;5112215;28;20110;-68
2022/09/17 11:04:54;;;;;;;1.60;0.65;;;16.80;64.20;;;;;;5109912;28;20413;-68
2022/09/17 11:08:00;;;;;;;2.42;0.77;;;17.10;63.70;;;;;;5112472;28;20035;-68
2022/09/17 11:10:35;;;;;;;2.20;0.80;;;17.30;63.40;;;;;;5113291;28;20034;-69
2022/09/17 11:13:28;;;;;;;1.88;0.82;;;17.50;63.40;;;;;;5102284;28;20428;-67
2022/09/17 11:16:09;;;;;;;5.70;0.90;;;17.70;63.30;;;;;;5114164;28;20050;-69
2022/09/17 11:18:36;;;;;;;3.72;1.00;;;17.70;63.60;;;;;;5119166;28;20043;-72
2022/09/17 11:21:17;;;;;;;3.70;1.17;;;17.70;63.90;;;;;;5113372;28;20114;-69
2022/09/17 11:23:48;;;;;;;2.90;1.00;;;17.70;64.10;;;;;;5112864;28;20383;-68
2022/09/17 11:26:32;;;;;;;3.38;1.23;;;17.80;64.10;;;;;;5110897;28;20027;-67
2022/09/17 11:29:11;;;;;;;3.63;1.15;;;17.80;63.90;;;;;;5113367;28;20058;-67
2022/09/17 11:32:13;;;;;;;6.07;1.10;;;18.00;63.90;;;;;;5112863;28;20399;-67
2022/09/17 11:35:19;;;;;;;5.88;1.13;;;18.10;63.50;;;;;;5112978;28;20039;-67
2022/09/17 11:37:53;;;;;;;4.82;1.05;;;18.30;63.10;;;;;;5114487;28;20047;-67
2022/09/17 11:40:24;;;;;;;3.63;1.00;;;18.40;62.80;;;;;;5121137;28;20015;-67
2022/09/17 11:43:01;;;;;;;7.05;1.20;;;18.40;62.20;;;;;;5111327;28;20024;-67
2022/09/17 11:45:32;;;;;;;8.13;1.50;;;18.40;62.00;;;;;;5113147;28;20035;-68
2022/09/17 11:48:15;;;;;;;5.60;1.23;;;18.30;62.00;;;;;;5113406;28;20019;-67
2022/09/17 11:50:59;;;;;;;5.78;1.42;;;18.20;62.10;;;;;;5114156;28;20020;-67
2022/09/17 11:53:34;;;;;;;10.07;1.63;;;18.10;61.60;;;;;;5128478;27;20099;-67
2022/09/17 11:56:25;;;;;;;6.35;1.50;;;18.20;61.40;;;;;;5113529;28;20020;-67
2022/09/17 11:58:57;;;;;;;8.10;1.45;;;18.20;61.00;;;;;;5120474;27;20064;-66
2022/09/17 12:01:45;;;;;;;7.82;1.88;;;18.20;60.80;;;;;;5118505;28;20028;-66
2022/09/17 12:04:43;;;;;;;8.02;1.30;;;18.10;59.90;;;;;;5116498;27;20120;-69
2022/09/17 12:07:33;;;;;;;5.85;1.20;;;18.10;59.60;;;;;;5118017;28;20042;-68
2022/09/17 12:10:24;;;;;;;9.77;1.45;;;18.10;59.30;;;;;;5098201;27;20043;-68
2022/09/17 12:12:57;;;;;;;5.10;1.40;;;18.30;58.80;;;;;;5107083;27;20114;-67
2022/09/17 12:15:27;;;;;;;5.28;1.15;;;18.40;58.20;;;;;;5115646;27;20144;-69
2022/09/17 12:17:56;;;;;;;5.80;1.40;;;18.40;58.10;;;;;;5119085;27;20027;-69
2022/09/17 12:20:34;;;;;;;5.78;1.02;;;18.20;58.70;;;;;;5106601;27;20027;-69
2022/09/17 12:23:05;;;;;;;5.55;1.33;;;18.00;59.60;;;;;;5106227;28;20436;-68
2022/09/17 12:25:51;;;;;;;7.97;1.50;;;17.70;60.70;;;;;;5101693;27;20429;-68
2022/09/17 12:28:41;;;;;;;5.35;1.15;;;17.60;61.60;;;;;;5099911;28;20451;-69
2022/09/17 12:31:36;;;;;;;4.03;1.30;;;17.40;62.10;;;;;;5122225;27;20515;-68
2022/09/17 12:34:35;;;;;;;5.00;1.10;;;17.30;62.50;;;;;;5090338;28;20039;-69
2022/09/17 12:37:16;;;;;;;3.47;0.88;;;17.20;62.50;;;;;;5099052;28;20505;-69
2022/09/17 12:40:05;;;;;;;3.77;0.90;;;17.20;62.40;;;;;;5108950;28;20102;-67
2022/09/17 12:42:52;;;;;;;6.25;1.10;;;17.10;62.50;;;;;;5114968;28;20084;-67
2022/09/17 12:45:36;;;;;;;4.75;1.02;;;17.20;62.50;;;;;;5116311;28;20039;-67
2022/09/17 12:48:21;;;;;;;5.13;1.23;;;17.30;61.90;;;;;;5115566;27;20032;-67
2022/09/17 12:51:24;;;;;;;4.88;1.10;;;17.30;61.10;;;;;;5098748;28;20023;-67
2022/09/17 12:54:27;;;;;;;6.82;1.23;;;17.30;60.90;;;;;;5131426;27;20040;-67
2022/09/17 12:57:10;;;;;;;5.57;0.90;;;17.30;60.60;;;;;;5117055;28;20408;-67
2022/09/17 12:59:50;;;;;;;4.55;1.33;;;17.30;60.50;;;;;;5116928;27;20328;-67
2022/09/17 13:02:32;;;;;;;7.00;1.40;;;17.30;61.10;;;;;;5114283;28;20027;-69
2022/09/17 13:05:42;;;;;;;4.13;1.17;;;17.20;60.50;;;;;;5106929;27;20057;-68
2022/09/17 13:08:40;;;;;;;7.13;1.45;;;17.20;60.80;;;;;;5104249;28;20043;-68
2022/09/17 13:11:32;;;;;;;2.83;0.80;;;17.20;60.70;;;;;;5131079;27;20455;-68
2022/09/17 13:14:02;;;;;;;5.28;1.00;;;17.20;60.80;;;;;;5130909;27;20039;-68
2022/09/17 13:16:31;;;;;;;6.18;1.35;;;17.20;61.00;;;;;;5126358;27;20325;-67
2022/09/17 13:19:10;;;;;;;5.75;1.10;;;17.20;60.80;;;;;;5115143;28;20015;-68
2022/09/17 13:21:54;;;;;;;3.92;0.95;;;17.20;60.50;;;;;;5116149;27;20051;-68